createdAt,value
2023-05-08T00:01:04.284Z,96794.44
2023-05-08T00:03:32.791Z,96840.19
2023-05-08T00:06:35.722Z,96801.25
2023-05-08T00:09:04.222Z,96811.66
2023-05-08T00:11:57.356Z,96803.00
2023-05-08T00:14:26.037Z,96825.03
2023-05-08T00:16:54.334Z,96774.78
2023-05-08T00:19:22.595Z,96798.50
2023-05-08T00:21:52.488Z,96835.91
2023-05-08T00:24:20.722Z,96730.34
2023-05-08T00:26:48.942Z,96829.78
2023-05-08T00:29:17.588Z,96616.94
2023-05-08T00:31:45.914Z,96825.41
2023-05-08T00:34:15.370Z,96737.13
2023-05-08T00:36:43.599Z,96786.66
2023-05-08T00:39:13.176Z,96755.19
2023-05-08T00:41:41.413Z,96775.28
2023-05-08T00:44:09.646Z,96808.13
2023-05-08T00:46:38.264Z,96781.72
2023-05-08T00:49:07.715Z,96855.38
2023-05-08T00:51:36.166Z,96777.13
2023-05-08T00:54:05.032Z,96774.69
2023-05-08T00:56:37.118Z,96813.88
2023-05-08T00:59:10.026Z,96840.38
2023-05-08T01:01:39.703Z,96796.72
2023-05-08T01:04:08.810Z,96823.22
2023-05-08T01:06:37.745Z,96805.75
2023-05-08T01:09:06.741Z,96796.63
2023-05-08T01:11:49.065Z,96796.75
2023-05-08T01:14:22.516Z,96818.44
2023-05-08T01:17:01.485Z,96783.75
2023-05-08T01:19:54.153Z,96804.50
2023-05-08T01:22:55.637Z,96712.34
2023-05-08T01:26:02.940Z,96797.72
2023-05-08T01:29:01.224Z,96752.19
2023-05-08T01:31:48.780Z,96728.50
2023-05-08T01:34:25.547Z,96729.91
2023-05-08T01:37:02.821Z,96841.31
2023-05-08T01:39:43.320Z,96770.97
2023-05-08T01:42:21.236Z,96860.91
2023-05-08T01:45:06.527Z,96818.31
2023-05-08T01:47:38.298Z,96851.72
2023-05-08T01:50:16.427Z,96848.81
2023-05-08T01:52:50.471Z,96851.22
2023-05-08T01:55:25.912Z,96789.53
2023-05-08T01:57:57.551Z,96848.00
2023-05-08T02:00:28.557Z,96864.97
2023-05-08T02:03:02.297Z,96869.09
2023-05-08T02:05:33.309Z,96856.84
2023-05-08T02:08:03.428Z,96816.94
2023-05-08T02:10:32.738Z,96672.31
2023-05-08T02:13:02.706Z,96830.00
2023-05-08T02:15:36.006Z,96813.00
2023-05-08T02:18:06.828Z,96840.66
2023-05-08T02:20:36.893Z,96863.41
2023-05-08T02:23:05.786Z,96785.03
2023-05-08T02:25:34.557Z,96886.16
2023-05-08T02:28:03.575Z,96798.84
2023-05-08T02:30:32.389Z,96873.63
2023-05-08T02:33:04.095Z,96793.94
2023-05-08T02:35:33.181Z,96849.25
2023-05-08T02:38:04.479Z,96894.66
2023-05-08T02:40:33.766Z,96835.38
2023-05-08T02:43:02.131Z,96881.13
2023-05-08T02:45:40.119Z,96851.47
2023-05-08T02:48:15.496Z,96813.63
2023-05-08T02:50:55.806Z,96853.09
2023-05-08T02:53:34.060Z,96868.44
2023-05-08T02:56:09.977Z,96833.75
2023-05-08T02:58:44.500Z,96830.69
2023-05-08T03:01:27.135Z,96889.59
2023-05-08T03:04:03.859Z,96821.31
2023-05-08T03:06:38.376Z,96880.09
2023-05-08T03:09:13.562Z,96862.13
2023-05-08T03:11:45.099Z,96857.16
2023-05-08T03:14:17.364Z,96857.47
2023-05-08T03:16:49.068Z,96846.88
2023-05-08T03:19:24.285Z,96823.91
2023-05-08T03:21:54.460Z,96751.91
2023-05-08T03:24:26.048Z,96840.97
2023-05-08T03:26:54.403Z,96855.25
2023-05-08T03:29:25.157Z,96852.53
2023-05-08T03:31:54.760Z,96851.31
2023-05-08T03:34:24.359Z,96798.81
2023-05-08T03:36:53.159Z,96823.97
2023-05-08T03:39:22.813Z,96771.25
2023-05-08T03:41:52.096Z,96865.22
2023-05-08T03:44:21.105Z,96862.25
2023-05-08T03:46:51.053Z,96836.38
2023-05-08T03:49:21.222Z,96715.97
2023-05-08T03:51:50.119Z,96854.31
2023-05-08T03:54:18.280Z,96836.31
2023-05-08T03:56:47.918Z,96851.75
2023-05-08T03:59:24.190Z,96788.44
2023-05-08T04:02:22.634Z,96842.09
2023-05-08T04:05:03.724Z,96893.31
2023-05-08T04:07:39.389Z,96836.31
2023-05-08T04:10:25.973Z,96846.69
2023-05-08T04:13:12.717Z,96877.41
2023-05-08T04:15:50.172Z,96893.31
2023-05-08T04:18:25.313Z,96914.50
2023-05-08T04:20:57.144Z,96883.56
2023-05-08T04:23:27.203Z,96834.50
2023-05-08T04:25:57.796Z,96885.06
2023-05-08T04:28:27.570Z,96856.88
2023-05-08T04:30:57.852Z,96879.06
2023-05-08T04:33:26.620Z,96864.81
2023-05-08T04:35:55.448Z,96869.91
2023-05-08T04:38:23.897Z,96924.16
2023-05-08T04:40:52.133Z,96911.44
2023-05-08T04:43:20.363Z,96928.84
2023-05-08T04:45:50.128Z,96898.63
2023-05-08T04:48:18.999Z,96930.63
2023-05-08T04:50:47.553Z,96907.66
2023-05-08T04:53:16.013Z,96917.31
2023-05-08T04:55:44.229Z,96868.41
2023-05-08T04:58:12.734Z,96863.00
2023-05-08T05:00:41.569Z,96916.09
2023-05-08T05:03:11.738Z,96831.88
2023-05-08T05:05:40.133Z,96892.59
2023-05-08T05:08:09.855Z,96900.47
2023-05-08T05:10:39.934Z,96924.09
2023-05-08T05:13:08.353Z,96908.16
2023-05-08T05:15:36.689Z,96908.13
2023-05-08T05:18:05.255Z,96906.34
2023-05-08T05:20:35.202Z,96906.47
2023-05-08T05:23:03.427Z,96927.50
2023-05-08T05:25:32.337Z,96911.03
2023-05-08T05:28:01.563Z,96806.81
2023-05-08T05:30:30.564Z,96867.47
2023-05-08T05:32:58.863Z,96933.59
2023-05-08T05:35:27.304Z,96931.63
2023-05-08T05:37:58.709Z,96973.09
2023-05-08T05:40:26.967Z,96968.47
2023-05-08T05:42:55.146Z,96946.78
2023-05-08T05:45:23.389Z,96905.88
2023-05-08T05:47:53.958Z,96919.41
2023-05-08T05:50:24.132Z,96947.66
2023-05-08T05:52:52.767Z,96945.69
2023-05-08T05:55:23.461Z,96902.69
2023-05-08T05:57:52.099Z,96945.03
2023-05-08T06:00:22.438Z,96898.00
2023-05-08T06:02:55.531Z,96897.41
2023-05-08T06:05:24.210Z,96964.38
2023-05-08T06:08:00.614Z,96949.31
2023-05-08T06:10:55.483Z,96928.00
2023-05-08T06:13:24.128Z,96958.38
2023-05-08T06:15:57.018Z,96923.31
2023-05-08T06:18:26.201Z,96972.50
2023-05-08T06:21:01.824Z,96937.78
2023-05-08T06:23:30.132Z,96937.16
2023-05-08T06:26:00.298Z,96951.91
2023-05-08T06:28:28.475Z,96937.44
2023-05-08T06:30:56.686Z,96942.19
2023-05-08T06:33:26.795Z,96914.72
2023-05-08T06:35:55.344Z,96991.56
2023-05-08T06:38:23.508Z,96936.16
2023-05-08T06:40:51.737Z,96994.31
2023-05-08T06:43:21.725Z,96948.56
2023-05-08T06:45:53.959Z,96963.59
2023-05-08T06:48:22.132Z,96911.66
2023-05-08T06:50:52.764Z,96927.63
2023-05-08T06:53:20.969Z,96969.78
2023-05-08T06:55:50.182Z,96954.72
2023-05-08T06:58:19.705Z,96945.03
2023-05-08T07:00:47.886Z,96934.03
2023-05-08T07:03:16.500Z,96888.94
2023-05-08T07:05:44.701Z,96971.44
2023-05-08T07:08:12.864Z,96952.47
2023-05-08T07:10:41.345Z,96981.56
2023-05-08T07:13:09.574Z,96933.88
2023-05-08T07:15:39.895Z,96929.91
2023-05-08T07:18:08.197Z,96971.56
2023-05-08T07:20:36.943Z,96981.53
2023-05-08T07:23:05.479Z,96981.75
2023-05-08T07:25:33.734Z,96930.94
2023-05-08T07:28:01.944Z,96966.22
2023-05-08T07:30:30.108Z,96939.47
2023-05-08T07:32:59.618Z,96950.50
2023-05-08T07:35:34.820Z,96939.72
2023-05-08T07:38:05.441Z,96940.09
2023-05-08T07:40:33.813Z,96964.03
2023-05-08T07:43:02.351Z,96918.06
2023-05-08T07:45:30.607Z,96954.84
2023-05-08T07:48:00.598Z,96948.22
2023-05-08T07:50:29.182Z,96949.75
2023-05-08T07:52:57.322Z,96935.41
2023-05-08T07:55:25.816Z,96967.66
2023-05-08T07:57:53.993Z,96979.63
2023-05-08T08:00:22.564Z,96974.72
2023-05-08T08:02:50.985Z,96957.50
2023-05-08T08:05:48.086Z,96966.47
2023-05-08T08:08:16.533Z,96922.06
2023-05-08T08:10:44.957Z,96986.03
2023-05-08T08:13:13.596Z,96982.94
2023-05-08T08:15:42.015Z,96975.25
2023-05-08T08:18:10.462Z,97080.28
2023-05-08T08:20:40.216Z,96974.91
2023-05-08T08:23:08.410Z,96946.38
2023-05-08T08:25:36.686Z,96982.94
2023-05-08T08:28:05.181Z,97029.19
2023-05-08T08:30:33.365Z,96962.03
2023-05-08T08:33:02.377Z,97005.63
2023-05-08T08:35:30.762Z,96960.34
2023-05-08T08:38:00.287Z,96985.16
2023-05-08T08:40:28.781Z,96921.38
2023-05-08T08:42:57.491Z,96970.38
2023-05-08T08:45:25.870Z,97016.03
2023-05-08T08:47:54.459Z,97040.22
2023-05-08T08:50:26.083Z,96920.47
2023-05-08T08:53:08.880Z,96950.28
2023-05-08T08:55:41.939Z,96972.75
2023-05-08T08:58:19.688Z,97022.09
2023-05-08T09:00:49.228Z,96939.03
2023-05-08T09:03:17.853Z,96998.25
2023-05-08T09:05:46.891Z,96987.00
2023-05-08T09:08:16.493Z,96980.63
2023-05-08T09:10:44.712Z,97011.06
2023-05-08T09:13:13.174Z,96991.47
2023-05-08T09:15:41.484Z,96988.16
2023-05-08T09:18:09.744Z,96986.19
2023-05-08T09:20:38.031Z,97026.28
2023-05-08T09:23:08.624Z,96988.50
2023-05-08T09:25:49.625Z,96965.56
2023-05-08T09:28:19.102Z,96987.31
2023-05-08T09:30:52.354Z,96999.44
2023-05-08T09:33:21.780Z,96919.13
2023-05-08T09:35:50.478Z,96971.25
2023-05-08T09:38:44.049Z,97002.31
2023-05-08T09:41:16.556Z,97058.75
2023-05-08T09:43:46.186Z,97042.09
2023-05-08T09:46:26.421Z,96990.72
2023-05-08T09:48:57.237Z,97008.09
2023-05-08T09:51:26.669Z,97015.50
2023-05-08T09:53:56.109Z,97027.66
2023-05-08T09:56:36.506Z,97008.44
2023-05-08T09:59:06.693Z,97019.44
2023-05-08T10:01:45.432Z,96948.09
2023-05-08T10:04:17.692Z,97021.81
2023-05-08T10:06:58.645Z,97008.38
2023-05-08T10:09:32.828Z,96974.25
2023-05-08T10:12:38.062Z,97025.19
2023-05-08T10:15:08.397Z,97008.56
2023-05-08T10:17:46.006Z,97013.38
2023-05-08T10:20:20.010Z,97030.22
2023-05-08T10:22:50.700Z,97049.06
2023-05-08T10:25:20.419Z,97008.28
2023-05-08T10:28:08.314Z,97078.06
2023-05-08T10:30:42.677Z,97046.22
2023-05-08T10:33:12.261Z,97045.41
2023-05-08T10:35:40.988Z,97027.56
2023-05-08T10:38:10.264Z,97018.16
2023-05-08T10:40:39.413Z,96984.69
2023-05-08T10:43:11.124Z,97012.13
2023-05-08T10:45:39.915Z,96984.31
2023-05-08T10:48:21.332Z,97021.53
2023-05-08T10:51:02.359Z,96546.03
2023-05-08T10:53:40.834Z,97030.41
2023-05-08T10:56:09.595Z,97027.75
2023-05-08T10:58:40.363Z,97009.25
2023-05-08T11:01:18.557Z,97002.97
2023-05-08T11:03:51.285Z,97020.31
2023-05-08T11:06:45.256Z,97018.31
2023-05-08T11:09:21.789Z,96891.41
2023-05-08T11:12:04.116Z,96979.34
2023-05-08T11:14:36.053Z,97019.06
2023-05-08T11:17:09.247Z,97056.13
2023-05-08T11:19:39.327Z,97015.97
2023-05-08T11:22:32.902Z,96971.34
2023-05-08T11:25:05.254Z,96996.13
2023-05-08T11:28:12.465Z,97047.56
2023-05-08T11:30:42.032Z,97035.97
2023-05-08T11:33:18.456Z,97016.94
2023-05-08T11:35:56.371Z,97019.34
2023-05-08T11:38:31.426Z,96895.97
2023-05-08T11:41:02.965Z,97033.69
2023-05-08T11:44:19.574Z,97039.75
2023-05-08T11:46:53.995Z,97025.28
2023-05-08T11:49:28.971Z,96968.91
2023-05-08T11:52:01.170Z,97019.03
2023-05-08T11:54:32.132Z,96964.63
2023-05-08T11:57:01.817Z,96993.75
2023-05-08T11:59:30.234Z,96932.06
2023-05-08T12:02:07.659Z,96976.34
2023-05-08T12:04:47.060Z,97024.28
2023-05-08T12:07:16.466Z,97045.41
2023-05-08T12:09:44.730Z,97027.66
2023-05-08T12:12:38.345Z,97009.88
2023-05-08T12:15:11.715Z,96980.84
2023-05-08T12:17:41.873Z,96987.47
2023-05-08T12:20:15.920Z,97032.94
2023-05-08T12:22:52.826Z,96991.47
2023-05-08T12:25:21.662Z,96989.06
2023-05-08T12:27:49.913Z,96998.66
2023-05-08T12:30:19.092Z,97040.63
2023-05-08T12:32:49.855Z,97027.91
2023-05-08T12:35:18.201Z,97027.25
2023-05-08T12:37:47.110Z,97044.75
2023-05-08T12:40:28.120Z,97021.03
2023-05-08T12:42:56.392Z,97007.81
2023-05-08T12:45:27.919Z,97009.56
2023-05-08T12:48:03.618Z,97042.25
2023-05-08T12:50:36.677Z,97046.34
2023-05-08T12:53:06.263Z,96995.22
2023-05-08T12:55:36.952Z,97008.28
2023-05-08T12:58:07.737Z,97033.13
2023-05-08T13:00:41.431Z,97051.81
2023-05-08T13:03:13.720Z,96962.72
2023-05-08T13:05:45.147Z,97002.34
2023-05-08T13:08:13.482Z,96992.22
2023-05-08T13:10:49.964Z,96957.44
2023-05-08T13:13:20.478Z,97019.75
2023-05-08T13:15:49.847Z,96979.25
2023-05-08T13:18:21.645Z,97054.69
2023-05-08T13:20:49.842Z,97010.34
2023-05-08T13:23:18.042Z,96980.56
2023-05-08T13:25:46.400Z,96992.84
2023-05-08T13:28:14.646Z,97031.16
2023-05-08T13:30:42.945Z,96947.25
2023-05-08T13:33:11.241Z,96958.97
2023-05-08T13:35:40.953Z,97013.44
2023-05-08T13:38:09.111Z,96994.97
2023-05-08T13:40:37.325Z,97011.09
2023-05-08T13:43:05.646Z,97007.53
2023-05-08T13:45:33.869Z,97035.06
2023-05-08T13:48:02.680Z,97011.75
2023-05-08T13:50:31.072Z,96981.38
2023-05-08T13:53:00.796Z,96969.44
2023-05-08T13:55:29.035Z,96973.41
2023-05-08T13:57:58.770Z,96987.06
2023-05-08T14:00:28.269Z,96921.91
2023-05-08T14:02:56.773Z,96996.44
2023-05-08T14:05:27.186Z,96976.78
2023-05-08T14:07:55.855Z,96961.66
2023-05-08T14:10:50.623Z,96971.22
2023-05-08T14:13:18.974Z,96986.69
2023-05-08T14:15:49.573Z,96973.19
2023-05-08T14:18:33.956Z,96974.50
2023-05-08T14:21:02.167Z,96926.69
2023-05-08T14:23:30.391Z,96924.06
2023-05-08T14:25:59.941Z,96999.31
2023-05-08T14:28:28.114Z,96912.56
2023-05-08T14:30:56.421Z,96986.00
2023-05-08T14:33:25.143Z,96949.50
2023-05-08T14:35:53.334Z,96990.09
2023-05-08T14:38:21.468Z,96991.94
2023-05-08T14:40:51.081Z,96997.06
2023-05-08T14:43:20.745Z,96944.16
2023-05-08T14:45:49.108Z,96939.22
2023-05-08T14:48:17.352Z,96934.91
2023-05-08T14:50:45.536Z,96940.44
2023-05-08T14:53:13.956Z,96975.94
2023-05-08T14:55:42.587Z,96958.09
2023-05-08T14:58:11.178Z,96940.44
2023-05-08T15:00:41.362Z,96972.03
2023-05-08T15:03:10.008Z,96924.63
2023-05-08T15:05:38.369Z,96927.69
2023-05-08T15:08:06.868Z,96933.22
2023-05-08T15:10:35.044Z,97027.59
2023-05-08T15:13:03.567Z,96972.81
2023-05-08T15:15:31.904Z,96988.34
2023-05-08T15:18:01.490Z,96923.22
2023-05-08T15:20:30.145Z,96942.25
2023-05-08T15:22:58.362Z,96969.09
2023-05-08T15:25:26.713Z,96953.91
2023-05-08T15:27:54.893Z,96984.84
2023-05-08T15:30:23.471Z,96952.25
2023-05-08T15:32:52.725Z,96984.41
2023-05-08T15:35:22.368Z,96933.78
2023-05-08T15:37:50.568Z,96944.88
2023-05-08T15:40:18.853Z,96954.25
2023-05-08T15:42:47.011Z,96898.56
2023-05-08T15:50:04.933Z,96920.63
2023-05-08T15:52:40.541Z,96947.25
2023-05-08T15:55:33.376Z,96946.78
2023-05-08T15:58:01.606Z,96959.34
2023-05-08T16:00:44.124Z,96919.78
2023-05-08T16:03:14.562Z,97001.56
2023-05-08T16:05:43.175Z,96927.16
2023-05-08T16:08:38.688Z,96968.50
2023-05-08T16:11:07.265Z,96927.56
2023-05-08T16:13:35.485Z,96947.78
2023-05-08T16:16:05.157Z,96938.56
2023-05-08T16:18:33.603Z,96846.72
2023-05-08T16:21:01.800Z,96940.16
2023-05-08T16:23:29.926Z,96949.16
2023-05-08T16:26:00.462Z,96898.38
2023-05-08T16:28:28.782Z,96927.88
2023-05-08T16:30:57.453Z,96890.19
2023-05-08T16:33:25.618Z,96937.47
2023-05-08T16:35:54.020Z,96885.44
2023-05-08T16:38:22.278Z,96982.09
2023-05-08T16:40:50.629Z,96933.53
2023-05-08T16:43:20.147Z,96921.06
2023-05-08T16:45:52.119Z,96974.00
2023-05-08T16:48:20.304Z,96958.41
2023-05-08T16:50:48.567Z,96951.69
2023-05-08T16:53:16.749Z,96920.50
2023-05-08T16:55:44.904Z,96913.38
2023-05-08T16:58:13.115Z,96918.28
2023-05-08T17:00:42.662Z,96915.84
2023-05-08T17:03:11.078Z,96934.69
2023-05-08T17:05:39.659Z,96911.31
2023-05-08T17:08:08.032Z,96929.31
2023-05-08T17:10:36.270Z,96883.81
2023-05-08T17:13:08.946Z,96908.59
2023-05-08T17:15:37.144Z,96934.53
2023-05-08T17:18:06.889Z,96935.28
2023-05-08T17:20:40.679Z,96933.00
2023-05-08T17:23:15.041Z,96994.25
2023-05-08T17:25:43.620Z,96937.03
2023-05-08T17:28:12.047Z,96919.50
2023-05-08T17:30:40.272Z,96899.94
2023-05-08T17:33:09.908Z,96955.00
2023-05-08T17:35:38.232Z,96967.88
2023-05-08T17:38:06.440Z,96938.81
2023-05-08T17:40:34.612Z,96940.19
2023-05-08T17:43:02.836Z,96966.88
2023-05-08T17:45:31.080Z,96906.88
2023-05-08T17:47:59.357Z,96983.25
2023-05-08T17:50:29.360Z,96990.59
2023-05-08T17:52:57.621Z,96910.56
2023-05-08T17:55:25.999Z,96945.91
2023-05-08T17:57:54.465Z,96569.47
2023-05-08T18:00:22.941Z,96964.44
2023-05-08T18:08:38.744Z,96992.22
2023-05-08T18:11:08.429Z,96916.53
2023-05-08T18:13:36.627Z,96998.44
2023-05-08T18:16:04.800Z,96978.09
2023-05-08T18:18:32.975Z,97005.13
2023-05-08T18:21:02.539Z,96939.56
2023-05-08T18:23:31.158Z,96963.91
2023-05-08T18:25:59.417Z,96940.59
2023-05-08T18:28:27.869Z,97081.69
2023-05-08T18:30:56.110Z,96969.38
2023-05-08T18:33:24.355Z,96967.34
2023-05-08T18:35:52.760Z,96978.50
2023-05-08T18:38:22.764Z,97012.66
2023-05-08T18:40:51.310Z,97005.63
2023-05-08T18:43:21.389Z,96956.47
2023-05-08T18:45:49.988Z,96943.75
2023-05-08T18:48:18.190Z,97017.84
2023-05-08T18:50:46.319Z,97004.75
2023-05-08T18:53:14.813Z,97003.56
2023-05-08T18:55:44.323Z,97015.31
2023-05-08T18:58:13.638Z,96964.25
2023-05-08T19:00:41.909Z,96932.41
2023-05-08T19:03:10.180Z,97015.63
2023-05-08T19:05:38.474Z,96972.47
2023-05-08T19:08:06.981Z,97006.31
2023-05-08T19:10:35.182Z,96981.78
2023-05-08T19:13:04.786Z,96985.13
2023-05-08T19:15:33.030Z,96965.97
2023-05-08T19:18:03.073Z,96836.19
2023-05-08T19:20:31.368Z,96930.88
2023-05-08T19:22:59.510Z,96950.47
2023-05-08T19:25:28.073Z,96946.09
2023-05-08T19:27:59.942Z,96968.06
2023-05-08T19:30:29.468Z,96969.72
2023-05-08T19:32:57.716Z,96966.97
2023-05-08T19:35:26.325Z,96872.50
2023-05-08T19:37:54.535Z,96946.25
2023-05-08T19:40:22.718Z,96989.22
2023-05-08T19:42:50.907Z,97002.22
2023-05-08T19:45:20.390Z,96980.63
2023-05-08T19:47:50.246Z,96997.31
2023-05-08T19:50:18.890Z,96994.34
2023-05-08T19:52:48.546Z,96957.41
2023-05-08T19:55:17.600Z,96966.00
2023-05-08T19:57:46.161Z,96955.94
2023-05-08T20:00:15.363Z,97146.91
2023-05-08T20:02:43.861Z,96979.38
2023-05-08T20:05:23.092Z,97001.78
2023-05-08T20:07:58.259Z,97001.31
2023-05-08T20:10:26.772Z,96980.09
2023-05-08T20:12:55.023Z,96971.94
2023-05-08T20:15:23.203Z,96919.56
2023-05-08T20:17:51.426Z,96935.16
2023-05-08T20:20:21.739Z,96985.94
2023-05-08T20:22:49.922Z,96989.44
2023-05-08T20:25:18.109Z,97005.63
2023-05-08T20:27:46.378Z,96990.91
2023-05-08T20:30:15.070Z,96988.78
2023-05-08T20:32:43.416Z,96941.34
2023-05-08T20:35:11.847Z,96965.56
2023-05-08T20:37:45.879Z,97027.47
2023-05-08T20:40:15.184Z,96923.56
2023-05-08T20:42:43.808Z,96944.06
2023-05-08T20:45:12.692Z,96939.31
2023-05-08T20:47:40.993Z,96940.22
2023-05-08T20:50:10.083Z,96916.00
2023-05-08T20:52:39.959Z,96925.22
2023-05-08T20:55:12.260Z,96965.97
2023-05-08T20:57:40.873Z,96944.50
2023-05-08T21:00:10.550Z,96930.69
2023-05-08T21:02:41.325Z,96974.50
2023-05-08T21:05:10.426Z,96955.69
2023-05-08T21:07:38.960Z,96854.03
2023-05-08T21:10:08.575Z,96928.78
2023-05-08T21:12:38.792Z,96934.38
2023-05-08T21:15:10.497Z,96955.19
2023-05-08T21:17:38.718Z,96935.19
2023-05-08T21:20:09.787Z,96967.44
2023-05-08T21:22:37.996Z,96908.59
2023-05-08T21:25:15.789Z,96916.09
2023-05-08T21:27:45.495Z,96968.63
2023-05-08T21:30:16.461Z,96922.84
2023-05-08T21:32:46.243Z,96969.44
2023-05-08T21:35:15.696Z,96914.31
2023-05-08T21:37:44.153Z,96958.75
2023-05-08T21:40:13.373Z,96953.72
2023-05-08T21:42:41.653Z,96959.19
2023-05-08T21:45:12.880Z,96992.38
2023-05-08T21:47:41.236Z,96879.69
2023-05-08T21:50:10.873Z,96930.22
2023-05-08T21:52:39.103Z,96930.03
2023-05-08T21:55:09.295Z,96859.91
2023-05-08T21:57:37.521Z,96922.88
2023-05-08T22:00:08.941Z,96953.75
2023-05-08T22:05:56.519Z,96974.22
2023-05-08T22:08:24.726Z,96962.25
2023-05-08T22:10:52.974Z,96944.13
2023-05-08T22:13:21.226Z,96892.81
2023-05-08T22:15:49.549Z,96931.91
2023-05-08T22:18:19.156Z,96905.53
2023-05-08T22:20:47.438Z,96953.31
2023-05-08T22:23:15.820Z,96838.28
2023-05-08T22:25:44.900Z,96933.25
2023-05-08T22:28:13.477Z,96949.41
2023-05-08T22:30:41.739Z,96916.28
2023-05-08T22:33:10.572Z,96938.91
2023-05-08T22:35:40.192Z,96932.50
2023-05-08T22:38:08.844Z,96954.25
2023-05-08T22:40:37.225Z,96907.03
2023-05-08T22:43:05.542Z,96956.47
2023-05-08T22:45:33.816Z,96914.03
2023-05-08T22:48:02.211Z,96999.31
2023-05-08T22:50:30.489Z,96907.03
2023-05-08T22:53:01.190Z,96941.22
2023-05-08T22:55:29.399Z,96923.72
2023-05-08T22:57:57.685Z,96872.19
2023-05-08T23:00:25.993Z,96907.38
2023-05-08T23:02:54.272Z,96894.22
2023-05-08T23:05:22.893Z,96851.09
2023-05-08T23:07:51.103Z,96922.06
2023-05-08T23:10:20.764Z,96943.69
2023-05-08T23:12:48.942Z,96877.16
2023-05-08T23:15:17.197Z,96876.22
2023-05-08T23:17:47.655Z,96914.13
2023-05-08T23:20:16.300Z,96878.59
2023-05-08T23:22:44.472Z,96889.38
2023-05-08T23:25:12.855Z,96838.75
2023-05-08T23:27:42.692Z,96893.56
2023-05-08T23:30:13.192Z,96856.31
2023-05-08T23:32:41.645Z,96856.94
2023-05-08T23:35:10.561Z,96902.94
2023-05-08T23:37:38.892Z,96857.84
2023-05-08T23:40:09.669Z,96891.78
2023-05-08T23:42:38.184Z,96869.47
2023-05-08T23:45:10.962Z,96861.25
2023-05-08T23:47:39.319Z,96897.41
2023-05-08T23:50:09.007Z,96838.38
2023-05-08T23:52:37.177Z,96838.56
2023-05-08T23:55:06.461Z,96852.13
2023-05-08T23:57:34.730Z,96876.25
